Time;durP1;ratioP1;P1;durP2;ratioP2;P2;SDS_P1;SDS_P2;PMS_P1;PMS_P2;Temp;Humidity;BMP_temperature;BMP_pressure;BME280_temperature;BME280_humidity;BME280_pressure;Samples;Min_cycle;Max_cycle;Signal;HPM_P1;HPM_P2
2022/06/03 00:00:04;;;;;;;7.10;4.30;;;;;;;20.30;63.75;96598.41;5094339;28;20381;-64
2022/06/03 00:02:51;;;;;;;6.78;5.07;;;;;;;20.30;63.59;96592.22;5114180;28;20028;-65
2022/06/03 00:06:05;;;;;;;6.57;4.28;;;;;;;20.34;63.53;96593.69;5113774;28;20057;-62
2022/06/03 00:09:18;;;;;;;9.45;5.25;;;;;;;20.30;64.02;96600.19;5067103;28;20092;-64
2022/06/03 00:11:46;;;;;;;7.90;4.85;;;;;;;20.26;63.94;96599.56;5086273;28;20115;-63
2022/06/03 00:14:30;;;;;;;6.07;5.15;;;;;;;20.29;64.02;96596.69;5113956;28;20027;-63
2022/06/03 00:17:14;;;;;;;8.15;4.72;;;;;;;20.19;64.21;96593.91;5114030;28;20027;-65
2022/06/03 00:20:16;;;;;;;8.63;5.35;;;;;;;20.12;64.65;96587.38;5113970;28;20035;-62
2022/06/03 00:22:48;;;;;;;6.22;5.20;;;;;;;20.08;64.48;96589.41;5113955;28;20024;-66
2022/06/03 00:25:33;;;;;;;6.85;4.82;;;;;;;20.15;64.34;96587.16;5113876;28;20024;-65
2022/06/03 00:28:11;;;;;;;8.18;5.65;;;;;;;20.23;63.95;96581.25;5113682;28;20031;-64
2022/06/03 00:30:48;;;;;;;7.70;5.63;;;;;;;20.30;63.87;96578.97;5113799;28;20027;-62
2022/06/03 00:33:40;;;;;;;9.57;5.55;;;;;;;20.28;64.04;96573.75;5113912;28;20381;-63
2022/06/03 00:36:27;;;;;;;8.82;5.03;;;;;;;20.28;63.96;96576.41;5113565;28;20138;-63
2022/06/03 00:39:01;;;;;;;8.07;5.50;;;;;;;20.23;63.81;96575.94;5113700;28;20062;-64
2022/06/03 00:42:21;;;;;;;6.57;4.30;;;;;;;20.16;64.56;96577.34;5113710;28;20028;-63
2022/06/03 00:44:58;;;;;;;5.55;4.88;;;;;;;20.14;64.18;96571.34;5050907;28;20033;-66
2022/06/03 00:47:32;;;;;;;9.13;5.20;;;;;;;20.17;64.32;96569.28;5051024;28;20033;-62
2022/06/03 00:50:35;;;;;;;12.57;5.07;;;;;;;20.17;64.32;96566.63;5095194;28;20485;-66
2022/06/03 00:53:12;;;;;;;9.38;5.40;;;;;;;20.08;65.03;96573.47;5113524;28;20035;-63
2022/06/03 00:56:15;;;;;;;11.35;5.70;;;;;;;20.03;65.11;96564.19;5112239;28;20078;-65
2022/06/03 00:58:52;;;;;;;7.65;5.22;;;;;;;19.99;64.79;96568.88;5113564;28;20024;-67
2022/06/03 01:01:18;;;;;;;6.55;5.13;;;;;;;19.93;65.25;96567.50;5113668;28;20023;-66
2022/06/03 01:04:04;;;;;;;6.82;5.43;;;;;;;19.86;65.69;96568.91;5113651;28;20471;-63
2022/06/03 01:06:51;;;;;;;11.27;6.03;;;;;;;19.77;65.84;96573.13;5113428;28;20055;-64
2022/06/03 01:09:29;;;;;;;6.30;5.13;;;;;;;19.71;66.17;96576.22;5113354;28;20039;-65
2022/06/03 01:12:22;;;;;;;7.10;5.68;;;;;;;19.54;67.22;96572.19;5113503;28;20030;-67
2022/06/03 01:14:48;;;;;;;9.13;5.43;;;;;;;19.50;67.27;96573.38;5114207;28;20377;-65
2022/06/03 01:17:38;;;;;;;11.13;5.80;;;;;;;19.42;67.37;96572.13;5117361;28;20020;-63
2022/06/03 01:20:17;;;;;;;14.65;6.10;;;;;;;19.43;67.16;96572.97;5108268;28;20055;-66
2022/06/03 01:23:02;;;;;;;9.57;6.00;;;;;;;19.39;67.60;96567.03;5117434;27;20024;-63
2022/06/03 01:25:52;;;;;;;10.10;5.97;;;;;;;19.47;66.90;96560.34;5117518;28;20143;-63
2022/06/03 01:28:55;;;;;;;11.52;5.72;;;;;;;19.48;66.86;96554.06;5117234;28;20053;-63
2022/06/03 01:31:52;;;;;;;8.25;5.15;;;;;;;19.51;66.67;96559.16;5117058;28;20036;-65
2022/06/03 01:34:24;;;;;;;8.13;5.65;;;;;;;19.59;66.67;96555.94;5063131;28;20088;-65
2022/06/03 01:36:52;;;;;;;10.60;5.70;;;;;;;19.61;66.38;96556.66;5116996;28;20042;-64
2022/06/03 01:39:33;;;;;;;12.00;5.20;;;;;;;19.62;66.42;96561.84;5116934;28;20063;-65
2022/06/03 01:42:36;;;;;;;10.68;5.45;;;;;;;19.59;66.61;96559.41;5117127;28;20034;-66
2022/06/03 01:45:16;;;;;;;8.07;4.97;;;;;;;19.54;66.44;96559.75;5116896;28;20035;-63
2022/06/03 01:48:03;;;;;;;9.57;5.43;;;;;;;19.59;66.40;96559.41;5116928;28;20023;-66
2022/06/03 01:51:02;;;;;;;11.60;6.35;;;;;;;19.57;66.44;96566.66;5116850;28;20083;-66
2022/06/03 01:53:31;;;;;;;7.78;5.55;;;;;;;19.53;67.00;96576.66;5116701;27;20035;-66
2022/06/03 01:56:17;;;;;;;7.93;5.65;;;;;;;19.51;67.09;96583.84;5116690;28;20545;-64
2022/06/03 01:59:13;;;;;;;6.78;5.80;;;;;;;19.47;67.23;96579.75;5116773;28;20027;-65
2022/06/03 02:02:29;;;;;;;8.38;6.15;;;;;;;19.41;67.43;96583.69;5116663;28;20072;-62
2022/06/03 02:05:18;;;;;;;8.40;6.25;;;;;;;19.27;68.00;96587.34;5116512;27;20032;-67
2022/06/03 02:08:10;;;;;;;8.60;6.03;;;;;;;19.13;68.90;96588.38;5116407;27;20027;-61
2022/06/03 02:11:08;;;;;;;9.38;6.05;;;;;;;19.05;68.75;96588.88;5116636;28;20020;-63
2022/06/03 02:13:55;;;;;;;6.75;5.57;;;;;;;19.03;69.00;96584.66;5084799;28;20043;-63
2022/06/03 02:16:45;;;;;;;7.85;5.97;;;;;;;18.95;69.27;96585.19;5116353;28;20465;-64
2022/06/03 02:19:21;;;;;;;7.32;5.78;;;;;;;18.93;69.49;96592.41;5116388;28;20111;-67
2022/06/03 02:22:09;;;;;;;8.38;6.00;;;;;;;18.91;69.43;96599.63;5116287;27;20023;-67
2022/06/03 02:25:02;;;;;;;11.82;6.25;;;;;;;18.79;69.42;96601.34;5116486;28;20049;-66
2022/06/03 02:28:00;;;;;;;7.88;6.32;;;;;;;18.72;69.61;96608.88;5115055;28;20054;-62
2022/06/03 02:30:40;;;;;;;9.80;6.50;;;;;;;18.63;70.10;96610.34;5116073;27;20044;-66
2022/06/03 02:33:46;;;;;;;9.35;6.85;;;;;;;18.55;70.39;96602.13;5116109;28;20081;-65
2022/06/03 02:36:11;;;;;;;8.48;6.35;;;;;;;18.49;70.60;96602.53;5114528;28;20040;-66
2022/06/03 02:39:07;;;;;;;6.78;6.03;;;;;;;18.40;71.00;96607.53;5116027;28;20019;-67
2022/06/03 02:41:58;;;;;;;6.90;5.80;;;;;;;18.30;71.33;96601.13;5115905;28;20038;-67
2022/06/03 02:44:57;;;;;;;9.93;6.82;;;;;;;18.19;71.50;96602.72;5115798;28;20058;-64
2022/06/03 02:47:59;;;;;;;7.97;6.57;;;;;;;18.15;71.79;96611.00;5115734;28;20481;-62
2022/06/03 02:50:58;;;;;;;11.02;6.63;;;;;;;18.10;72.09;96607.78;5115689;28;20047;-66
2022/06/03 02:53:24;;;;;;;8.15;6.70;;;;;;;18.00;72.56;96618.97;5115656;28;20035;-63
2022/06/03 02:56:08;;;;;;;6.63;5.93;;;;;;;17.99;72.83;96624.38;5115515;28;20024;-63
2022/06/03 02:59:20;;;;;;;7.53;6.45;;;;;;;17.96;73.97;96629.84;5115590;28;20032;-62
2022/06/03 03:02:04;;;;;;;8.88;6.57;;;;;;;17.94;73.71;96633.47;5052742;28;20043;-62
2022/06/03 03:04:56;;;;;;;10.88;6.63;;;;;;;18.00;73.56;96626.09;5115022;28;20050;-65
2022/06/03 03:07:42;;;;;;;13.50;6.45;;;;;;;17.96;73.82;96629.84;5115307;28;20027;-65
2022/06/03 03:10:33;;;;;;;7.60;6.72;;;;;;;17.99;74.03;96627.88;5115436;28;20358;-64
2022/06/03 03:13:49;;;;;;;7.90;6.03;;;;;;;18.07;74.02;96622.06;5115217;28;20031;-66
2022/06/03 03:16:52;;;;;;;9.82;6.70;;;;;;;18.06;73.95;96628.28;5052390;28;20139;-63
2022/06/03 03:19:38;;;;;;;10.98;7.50;;;;;;;18.10;74.12;96628.94;5052350;28;20033;-62
2022/06/03 03:22:27;;;;;;;13.15;6.60;;;;;;;18.13;73.94;96629.63;5079546;28;20035;-63
2022/06/03 03:25:25;;;;;;;11.40;6.85;;;;;;;18.10;74.15;96629.84;5115037;28;20027;-65
2022/06/03 03:28:07;;;;;;;11.48;6.80;;;;;;;18.14;74.06;96627.81;5106365;28;20116;-62
2022/06/03 03:30:44;;;;;;;7.18;6.15;;;;;;;18.34;73.88;96641.50;5114883;28;20057;-62
2022/06/03 03:33:45;;;;;;;12.80;6.03;;;;;;;18.62;72.12;96643.09;5114786;28;20036;-64
2022/06/03 03:36:32;;;;;;;6.88;5.55;;;;;;;18.98;71.15;96660.97;5094554;28;20096;-61
2022/06/03 03:39:26;;;;;;;8.23;5.03;;;;;;;19.30;70.42;96664.03;5114568;28;20062;-62
2022/06/03 03:42:36;;;;;;;7.53;5.13;;;;;;;19.83;68.60;96673.50;5114560;28;20051;-66
2022/06/03 03:45:19;;;;;;;6.50;4.70;;;;;;;20.35;66.42;96675.06;5107802;28;20043;-61
2022/06/03 03:48:09;;;;;;;11.52;5.60;;;;;;;20.85;64.94;96679.25;5114699;28;20024;-64
2022/06/03 03:51:10;;;;;;;5.18;4.68;;;;;;;21.32;63.73;96684.50;5114508;28;20366;-62
2022/06/03 03:53:44;;;;;;;7.50;4.95;;;;;;;21.81;62.20;96680.66;5114429;28;20453;-63
2022/06/03 03:56:12;;;;;;;9.15;4.80;;;;;;;22.16;61.12;96689.38;5114406;28;20020;-63
2022/06/03 03:58:56;;;;;;;6.53;4.32;;;;;;;22.49;59.34;96700.84;5114462;28;20473;-64
2022/06/03 04:01:34;;;;;;;5.55;4.20;;;;;;;22.97;58.49;96694.13;5114523;28;20028;-64
2022/06/03 04:04:37;;;;;;;5.50;3.92;;;;;;;23.42;57.38;96699.28;5114343;28;20524;-64
2022/06/03 04:07:14;;;;;;;5.90;4.03;;;;;;;23.86;54.42;96704.28;5114060;28;20043;-63
2022/06/03 04:10:11;;;;;;;8.02;4.15;;;;;;;24.19;55.31;96712.09;5114058;28;20020;-66
2022/06/03 04:12:55;;;;;;;8.27;4.10;;;;;;;24.50;55.27;96713.78;5114118;28;20034;-64
2022/06/03 04:15:45;;;;;;;5.97;3.75;;;;;;;24.86;53.48;96716.66;5114168;28;20468;-65
2022/06/03 04:18:47;;;;;;;6.65;4.28;;;;;;;25.13;53.01;96707.03;5114034;28;20358;-64
2022/06/03 04:21:34;;;;;;;5.05;3.88;;;;;;;25.48;52.50;96705.50;5113865;28;20027;-66
2022/06/03 04:24:17;;;;;;;12.40;3.90;;;;;;;25.71;52.14;96715.81;5114087;28;20028;-63
2022/06/03 04:26:57;;;;;;;7.05;3.70;;;;;;;25.98;51.92;96716.78;5113963;28;20030;-66
2022/06/03 04:29:55;;;;;;;8.20;3.75;;;;;;;26.28;51.92;96719.25;5113814;28;20028;-69
2022/06/03 04:32:35;;;;;;;6.30;3.42;;;;;;;26.54;50.07;96729.22;5113744;28;20027;-63
2022/06/03 04:35:01;;;;;;;;;;;;;;;26.85;50.09;96730.63;5113862;28;20054;-65
2022/06/03 04:37:38;;;;;;;6.85;3.45;;;;;;;27.15;49.97;96741.06;5113800;28;19916;-67
2022/06/03 04:40:43;;;;;;;6.90;3.95;;;;;;;27.40;50.07;96728.63;5113707;28;20031;-63
2022/06/03 04:43:54;;;;;;;6.10;3.65;;;;;;;27.68;49.60;96727.56;5113657;28;20114;-65
2022/06/03 04:46:34;;;;;;;9.85;4.20;;;;;;;27.93;49.57;96728.50;5113643;28;20023;-65
2022/06/03 04:49:03;;;;;;;7.72;3.97;;;;;;;28.12;49.14;96731.91;5113580;28;20033;-64
2022/06/03 04:52:06;;;;;;;6.70;3.78;;;;;;;28.30;48.77;96725.56;5113300;28;20031;-65
2022/06/03 04:54:41;;;;;;;5.20;3.58;;;;;;;28.46;47.22;96725.59;5113552;28;20049;-66
2022/06/03 04:57:37;;;;;;;7.85;3.90;;;;;;;28.64;45.82;96729.97;5113584;28;20073;-64
2022/06/03 05:00:24;;;;;;;9.90;3.45;;;;;;;28.91;45.54;96735.13;5113685;28;20073;-69
2022/06/03 05:03:17;;;;;;;6.32;4.30;;;;;;;29.18;44.96;96727.72;5113720;28;20046;-66
2022/06/03 05:06:16;;;;;;;4.90;3.05;;;;;;;29.36;44.49;96736.44;5113550;28;20031;-66
2022/06/03 05:09:14;;;;;;;4.53;3.50;;;;;;;29.57;44.67;96732.34;5113527;28;20092;-67
2022/06/03 05:12:03;;;;;;;5.97;4.18;;;;;;;29.76;45.95;96728.38;5113401;28;20031;-66
2022/06/03 05:14:59;;;;;;;7.95;3.70;;;;;;;30.11;44.87;96735.28;5113549;28;20031;-69
2022/06/03 05:17:52;;;;;;;5.30;3.70;;;;;;;30.41;45.20;96740.00;5113324;28;20031;-65
2022/06/03 05:20:58;;;;;;;6.78;3.55;;;;;;;30.67;44.09;96739.59;5113233;28;20028;-67
2022/06/03 05:23:45;;;;;;;8.32;3.60;;;;;;;30.92;42.59;96738.59;5113365;28;20028;-67
2022/06/03 05:26:22;;;;;;;10.88;4.15;;;;;;;31.11;42.16;96748.88;5113244;28;20044;-64
2022/06/03 05:29:25;;;;;;;7.15;3.60;;;;;;;31.23;41.13;96749.25;5113345;28;20016;-65
2022/06/03 05:32:09;;;;;;;27.23;5.05;;;;;;;31.39;41.81;96742.84;5113219;28;20026;-68
2022/06/03 05:35:05;;;;;;;8.10;4.18;;;;;;;31.64;41.95;96734.44;5113095;28;20027;-67
2022/06/03 05:37:49;;;;;;;5.95;3.63;;;;;;;31.87;41.46;96732.63;5113165;28;20122;-68
2022/06/03 05:40:20;;;;;;;6.05;3.80;;;;;;;31.98;40.78;96734.91;5113238;28;20042;-71
2022/06/03 05:42:49;;;;;;;9.30;4.68;;;;;;;32.13;39.75;96734.84;5113249;28;20043;-66
2022/06/03 05:45:33;;;;;;;8.57;4.57;;;;;;;32.35;39.46;96739.44;5113029;28;20022;-70
2022/06/03 05:48:36;;;;;;;10.35;3.95;;;;;;;32.57;40.70;96740.31;5113012;28;20107;-65
2022/06/03 05:51:10;;;;;;;9.75;4.45;;;;;;;32.60;38.69;96747.19;5113090;28;20020;-66
2022/06/03 05:53:39;;;;;;;8.98;4.20;;;;;;;32.75;38.35;96742.53;5113013;28;20040;-65
2022/06/03 05:56:42;;;;;;;6.88;4.00;;;;;;;32.68;38.75;96741.63;5112917;28;20031;-68
2022/06/03 05:59:17;;;;;;;7.10;3.83;;;;;;;32.65;38.26;96739.31;5113008;28;20027;-67
2022/06/03 06:01:57;;;;;;;6.30;3.40;;;;;;;32.74;39.74;96742.72;5113626;28;20019;-67
2022/06/03 06:04:38;;;;;;;;;;;;;;;32.67;36.48;96739.13;5117088;27;20028;-71
2022/06/03 06:07:14;;;;;;;6.47;3.40;;;;;;;32.65;38.27;96734.75;5116499;28;20281;-69
2022/06/03 06:09:46;;;;;;;7.75;3.83;;;;;;;32.52;36.75;96734.63;5116596;28;20024;-67
2022/06/03 06:12:23;;;;;;;9.35;3.65;;;;;;;32.75;38.75;96733.59;5116401;28;20422;-70
2022/06/03 06:15:07;;;;;;;5.72;3.33;;;;;;;32.85;36.29;96730.53;5116540;28;20385;-62
2022/06/03 06:18:00;;;;;;;7.00;3.70;;;;;;;32.56;35.41;96732.38;5116384;28;20027;-66
2022/06/03 06:21:07;;;;;;;7.35;3.67;;;;;;;32.07;39.03;96737.47;5116537;28;20114;-67
2022/06/03 06:23:50;;;;;;;8.10;3.95;;;;;;;31.73;38.46;96729.78;5053371;28;20033;-67
2022/06/03 06:26:45;;;;;;;9.07;3.80;;;;;;;31.92;39.16;96734.78;5110425;28;20043;-68
2022/06/03 06:29:24;;;;;;;3.92;3.58;;;;;;;31.89;37.76;96727.88;5089661;27;20094;-68
2022/06/03 06:32:26;;;;;;;13.60;3.97;;;;;;;32.13;37.68;96729.44;5116163;27;20035;-66
2022/06/03 06:35:29;;;;;;;6.47;3.70;;;;;;;32.29;37.03;96735.63;5115685;28;20288;-68
2022/06/03 06:38:19;;;;;;;10.48;3.70;;;;;;;32.22;35.65;96734.72;5115973;28;20496;-67
2022/06/03 06:41:21;;;;;;;8.70;3.72;;;;;;;31.37;36.38;96730.56;5116074;28;20028;-71
2022/06/03 06:44:00;;;;;;;5.40;4.03;;;;;;;30.81;38.82;96729.91;5115720;28;20558;-68
2022/06/03 06:47:00;;;;;;;5.95;3.58;;;;;;;30.72;38.09;96739.06;5115761;28;20366;-64
2022/06/03 06:49:38;;;;;;;9.32;4.22;;;;;;;30.52;40.64;96742.28;5115834;28;20034;-71
2022/06/03 06:52:15;;;;;;;5.03;3.85;;;;;;;30.49;40.58;96735.38;5114556;28;20062;-68
2022/06/03 06:55:03;;;;;;;6.95;3.95;;;;;;;30.27;39.54;96731.66;5115678;28;20032;-67
2022/06/03 06:57:46;;;;;;;6.20;3.92;;;;;;;30.06;39.85;96726.88;5115623;28;20028;-67
2022/06/03 07:00:38;;;;;;;6.65;4.05;;;;;;;29.86;40.57;96730.84;5114423;28;20023;-68
2022/06/03 07:03:25;;;;;;;9.30;4.50;;;;;;;30.14;40.08;96726.84;5115755;28;20039;-68
2022/06/03 07:06:11;;;;;;;11.10;4.28;;;;;;;30.16;39.62;96735.63;5115466;28;20157;-64
2022/06/03 07:08:44;;;;;;;10.82;4.28;;;;;;;30.61;39.18;96732.25;5115429;28;20034;-67
2022/06/03 07:11:14;;;;;;;5.57;3.72;;;;;;;30.96;40.07;96731.78;5115327;28;20031;-69
2022/06/03 07:13:45;;;;;;;5.00;4.10;;;;;;;31.17;38.26;96732.94;5114873;28;20035;-66
2022/06/03 07:19:50;;;;;;;8.88;4.13;;;;;;;31.47;38.79;96732.97;5115462;28;20039;-66
2022/06/03 07:22:21;;;;;;;5.50;3.63;;;;;;;31.67;36.92;96730.53;5115226;28;20027;-67
2022/06/03 07:25:08;;;;;;;8.27;4.00;;;;;;;31.95;36.48;96735.28;5115036;28;20043;-71
2022/06/03 07:27:42;;;;;;;5.43;4.03;;;;;;;31.84;36.28;96750.06;5115108;28;20027;-63
2022/06/03 07:30:18;;;;;;;9.55;3.97;;;;;;;31.78;37.02;96745.41;5114912;28;20373;-64
2022/06/03 07:32:58;;;;;;;6.93;3.92;;;;;;;32.03;37.67;96742.44;5114892;28;20028;-65
2022/06/03 07:36:06;;;;;;;14.75;3.97;;;;;;;32.51;35.46;96736.50;5114586;28;20130;-63
2022/06/03 07:38:41;;;;;;;9.85;3.58;;;;;;;32.46;34.78;96743.50;5052132;28;20039;-67
2022/06/03 07:41:17;;;;;;;6.35;4.03;;;;;;;31.83;35.45;96723.22;5108612;28;20035;-62
2022/06/03 07:43:55;;;;;;;7.88;3.70;;;;;;;31.38;34.91;96729.53;5114736;28;20028;-65
2022/06/03 07:46:39;;;;;;;7.40;4.10;;;;;;;31.44;36.30;96734.19;5114509;28;20473;-68
2022/06/03 07:49:06;;;;;;;8.00;3.80;;;;;;;31.41;37.23;96739.97;5114658;28;20028;-66
2022/06/03 07:51:38;;;;;;;5.80;3.72;;;;;;;31.63;35.97;96732.78;5114559;28;20504;-67
2022/06/03 07:54:15;;;;;;;8.13;3.60;;;;;;;31.70;36.01;96732.03;5114468;28;20419;-63
2022/06/03 07:56:41;;;;;;;5.03;3.75;;;;;;;31.67;35.67;96735.09;5114449;28;20095;-68
2022/06/03 07:59:29;;;;;;;9.63;4.07;;;;;;;31.88;34.66;96737.03;5114413;28;20420;-68
2022/06/03 08:02:01;;;;;;;9.32;3.72;;;;;;;32.01;35.29;96734.50;5114195;28;20392;-66
2022/06/03 08:04:35;;;;;;;6.60;3.60;;;;;;;32.27;34.18;96730.41;5114237;28;20015;-68
2022/06/03 08:12:37;;;;;;;7.60;3.75;;;;;;;32.04;34.94;96733.28;5114575;28;20085;-65
2022/06/03 08:15:20;;;;;;;5.40;3.67;;;;;;;32.10;35.92;96728.97;5114014;28;20011;-65
2022/06/03 08:17:48;;;;;;;5.53;3.28;;;;;;;31.92;35.21;96735.66;5114064;28;20362;-69
2022/06/03 08:20:17;;;;;;;6.75;3.78;;;;;;;32.04;35.04;96730.59;5113934;28;20554;-64
2022/06/03 08:22:44;;;;;;;9.20;3.65;;;;;;;32.08;35.12;96731.06;5114037;28;20036;-67
2022/06/03 08:25:15;;;;;;;9.45;3.65;;;;;;;32.24;34.29;96733.50;5113281;28;20020;-71
2022/06/03 08:27:43;;;;;;;6.30;3.15;;;;;;;32.20;33.08;96728.69;5113837;28;20035;-64
2022/06/03 08:30:13;;;;;;;5.72;3.00;;;;;;;32.08;34.14;96731.06;5113871;28;20073;-65
2022/06/03 08:32:43;;;;;;;8.35;3.35;;;;;;;32.12;34.44;96740.44;5113870;28;20019;-67
2022/06/03 08:35:19;;;;;;;;;;;;;;;32.29;33.56;96735.63;5113969;28;20058;-65
2022/06/03 08:37:55;;;;;;;6.13;3.20;;;;;;;32.16;33.24;96717.41;5113853;28;19916;-67
2022/06/03 08:40:35;;;;;;;6.43;3.45;;;;;;;31.90;34.14;96726.84;5113853;28;20034;-67
2022/06/03 08:43:06;;;;;;;;;;;;;;;31.62;35.13;96727.56;5114100;28;20388;-62
2022/06/03 08:45:55;;;;;;;9.00;3.45;;;;;;;31.49;35.13;96729.06;5112339;28;19911;-68
2022/06/03 08:48:28;;;;;;;6.55;3.40;;;;;;;31.46;35.26;96724.03;5113432;28;20080;-65
2022/06/03 08:50:58;;;;;;;10.60;3.72;;;;;;;31.31;34.74;96725.88;5113745;28;20478;-64
2022/06/03 08:53:28;;;;;;;8.52;4.07;;;;;;;31.27;35.94;96728.09;5113555;28;20144;-65
2022/06/03 08:55:59;;;;;;;10.23;4.18;;;;;;;31.64;35.37;96730.91;5113607;28;20481;-68
2022/06/03 08:58:34;;;;;;;7.72;4.00;;;;;;;31.64;34.24;96729.03;5113483;28;20032;-65
2022/06/03 09:01:38;;;;;;;8.10;3.60;;;;;;;31.33;34.81;96732.75;5113443;28;20067;-69
2022/06/03 09:04:33;;;;;;;8.98;3.78;;;;;;;31.15;35.24;96731.25;5110400;28;20427;-68
2022/06/03 09:07:23;;;;;;;7.60;3.72;;;;;;;31.45;35.14;96730.44;5113309;28;20028;-67
2022/06/03 09:10:26;;;;;;;6.18;4.20;;;;;;;31.63;34.65;96723.81;5113412;28;20042;-66
2022/06/03 09:13:00;;;;;;;5.88;3.90;;;;;;;30.96;35.20;96729.09;5112100;28;20118;-67
2022/06/03 09:15:29;;;;;;;4.32;3.53;;;;;;;30.72;36.67;96731.81;5113353;28;20024;-64
2022/06/03 09:18:06;;;;;;;7.13;4.10;;;;;;;30.56;35.62;96743.59;5113293;28;20024;-67
2022/06/03 09:20:44;;;;;;;6.35;3.60;;;;;;;30.47;36.23;96740.13;5113271;28;20385;-67
2022/06/03 09:23:16;;;;;;;7.70;4.18;;;;;;;30.58;37.11;96729.94;5113302;28;20392;-70
2022/06/03 09:25:47;;;;;;;10.85;3.88;;;;;;;30.76;35.27;96735.84;5113277;28;20028;-65
2022/06/03 09:28:23;;;;;;;14.50;3.20;;;;;;;30.85;33.85;96731.22;5113287;28;20126;-68
2022/06/03 09:30:51;;;;;;;5.68;3.63;;;;;;;30.85;34.84;96722.31;5113232;28;20081;-69
2022/06/03 09:33:20;;;;;;;9.70;3.58;;;;;;;31.02;35.02;96737.31;5113319;28;20469;-66
2022/06/03 09:35:48;;;;;;;9.60;3.85;;;;;;;31.28;34.81;96727.09;5113724;28;20047;-67
2022/06/03 09:38:18;;;;;;;5.10;3.42;;;;;;;31.24;34.55;96732.00;5117037;28;20036;-68
2022/06/03 09:40:46;;;;;;;6.10;3.55;;;;;;;31.03;34.00;96735.44;5117104;28;20386;-64
2022/06/03 09:43:20;;;;;;;8.10;3.28;;;;;;;30.84;34.74;96745.75;5117101;28;20147;-66
2022/06/03 09:45:50;;;;;;;5.50;3.60;;;;;;;30.72;34.59;96750.72;5116971;28;20519;-64
2022/06/03 09:48:20;;;;;;;8.27;3.70;;;;;;;30.74;35.43;96745.97;5116791;27;20038;-65
2022/06/03 09:50:48;;;;;;;6.43;3.30;;;;;;;30.74;34.90;96755.94;5116951;28;20035;-66
2022/06/03 09:53:18;;;;;;;6.32;3.72;;;;;;;30.75;35.90;96760.28;5116796;28;20066;-65
2022/06/03 09:55:48;;;;;;;;;;;;;;;30.62;34.79;96759.06;5117301;28;20027;-64
2022/06/03 09:58:17;;;;;;;10.68;3.13;;;;;;;30.61;35.22;96768.16;5116665;28;19945;-67
2022/06/03 10:00:50;;;;;;;6.33;3.53;;;;;;;30.76;35.73;96772.81;5116621;28;20032;-66
2022/06/03 10:03:17;;;;;;;5.60;3.10;;;;;;;30.93;35.24;96765.41;5116607;28;20058;-68
2022/06/03 10:05:47;;;;;;;4.55;2.88;;;;;;;30.84;35.70;96775.44;5116509;28;20432;-66
2022/06/03 10:08:17;;;;;;;7.93;3.42;;;;;;;30.52;35.20;96769.25;5116540;28;20031;-67
2022/06/03 10:13:31;;;;;;;5.03;3.25;;;;;;;30.75;36.49;96779.19;5116452;28;20736;-67
2022/06/03 10:15:59;;;;;;;5.40;3.40;;;;;;;30.68;36.76;96781.78;5116307;28;20039;-66
2022/06/03 10:18:30;;;;;;;8.23;3.22;;;;;;;30.84;36.47;96778.13;5116404;28;20477;-64
2022/06/03 10:21:05;;;;;;;6.38;3.15;;;;;;;30.78;35.34;96778.84;5116260;28;20027;-65
2022/06/03 10:23:40;;;;;;;5.93;3.78;;;;;;;30.62;36.69;96780.66;5116223;28;20020;-63
2022/06/03 10:26:06;;;;;;;8.73;3.55;;;;;;;30.53;35.76;96781.72;5116243;28;20102;-66
2022/06/03 10:28:37;;;;;;;9.70;3.92;;;;;;;30.63;36.07;96789.56;5116056;28;20110;-67
2022/06/03 10:31:13;;;;;;;10.02;4.00;;;;;;;30.39;36.06;96786.03;5116108;28;20019;-63
2022/06/03 10:33:39;;;;;;;7.43;4.38;;;;;;;30.38;36.12;96787.06;5116026;28;20385;-66
2022/06/03 10:36:06;;;;;;;6.50;3.63;;;;;;;30.38;36.47;96778.97;5115699;28;20051;-66
2022/06/03 10:38:34;;;;;;;7.45;4.00;;;;;;;30.13;35.81;96785.31;5115880;28;20499;-64
2022/06/03 10:41:09;;;;;;;7.03;3.33;;;;;;;30.29;37.47;96764.69;5115718;28;20023;-67
2022/06/03 10:43:36;;;;;;;3.88;3.13;;;;;;;30.33;36.96;96779.50;5115807;28;20049;-63
2022/06/03 10:46:17;;;;;;;9.70;3.40;;;;;;;30.42;36.34;96769.47;5115799;28;20055;-67
2022/06/03 10:48:45;;;;;;;6.60;4.03;;;;;;;30.45;36.73;96771.81;5114787;28;20481;-64
2022/06/03 11:02:38;;;;;;;11.82;4.00;;;;;;;30.25;37.01;96763.38;5115707;28;20108;-68
2022/06/03 11:05:09;;;;;;;8.43;4.97;;;;;;;30.13;35.99;96763.72;5114126;28;20020;-63
2022/06/03 11:07:36;;;;;;;6.10;3.60;;;;;;;30.04;35.29;96754.03;5115300;27;20035;-66
2022/06/03 11:10:14;;;;;;;4.75;3.35;;;;;;;30.22;37.28;96761.84;5115219;28;20024;-66
2022/06/03 11:12:42;;;;;;;6.72;3.40;;;;;;;30.23;35.86;96765.41;5115275;28;20120;-69
2022/06/03 11:15:31;;;;;;;5.13;3.10;;;;;;;30.19;35.21;96753.28;5115183;28;20100;-67
2022/06/03 11:17:59;;;;;;;6.78;3.33;;;;;;;30.39;35.66;96754.50;5115292;28;20031;-67
2022/06/03 11:20:34;;;;;;;4.38;2.88;;;;;;;30.59;34.39;96755.88;5115189;28;20028;-66
2022/06/03 11:23:03;;;;;;;8.70;3.35;;;;;;;30.64;35.96;96756.19;5115075;28;20016;-67
2022/06/03 11:25:31;;;;;;;5.93;3.15;;;;;;;30.80;34.30;96744.44;5114946;28;20092;-67
2022/06/03 11:27:58;;;;;;;8.32;3.40;;;;;;;30.96;34.67;96745.28;5114880;28;20538;-68
2022/06/03 11:31:00;;;;;;;9.45;3.40;;;;;;;31.06;33.27;96742.34;5114883;28;20373;-67
2022/06/03 11:33:54;;;;;;;4.93;3.30;;;;;;;30.78;33.72;96754.56;5115031;28;20038;-67
2022/06/03 11:36:27;;;;;;;6.05;3.00;;;;;;;30.60;34.12;96744.91;5108676;28;20051;-61
2022/06/03 11:38:58;;;;;;;11.27;3.00;;;;;;;30.44;34.13;96745.03;5114653;28;20572;-67
2022/06/03 11:41:31;;;;;;;4.82;2.95;;;;;;;30.42;34.48;96742.50;5114764;28;20016;-68
2022/06/03 11:44:13;;;;;;;4.32;3.20;;;;;;;30.36;35.66;96738.69;5114775;28;20027;-64
2022/06/03 11:47:06;;;;;;;8.52;3.67;;;;;;;30.52;35.90;96743.09;5114591;28;20092;-65
2022/06/03 11:49:33;;;;;;;4.05;3.05;;;;;;;30.47;34.38;96742.81;5107822;28;20044;-66
2022/06/03 11:52:00;;;;;;;6.18;3.10;;;;;;;30.38;34.07;96735.81;5114463;27;20027;-63
2022/06/03 11:54:28;;;;;;;9.15;3.13;;;;;;;30.40;33.71;96739.16;5114398;28;20020;-67
2022/06/03 11:56:54;;;;;;;5.53;2.85;;;;;;;30.66;32.87;96729.03;5114426;28;20039;-66
2022/06/03 11:59:30;;;;;;;4.88;3.20;;;;;;;30.65;34.65;96725.47;5114354;28;20020;-63
2022/06/03 12:02:21;;;;;;;7.25;3.28;;;;;;;30.60;34.96;96727.88;5114340;28;20120;-66
2022/06/03 12:04:55;;;;;;;4.43;3.22;;;;;;;30.65;34.34;96736.25;5114226;28;20088;-65
2022/06/03 12:07:41;;;;;;;8.60;3.30;;;;;;;30.86;36.07;96732.06;5114100;28;20051;-62
2022/06/03 12:10:11;;;;;;;7.63;4.03;;;;;;;30.83;34.92;96719.78;5114245;28;20035;-68
2022/06/03 12:15:32;;;;;;;5.25;3.22;;;;;;;30.92;34.18;96722.38;5114094;28;20050;-63
2022/06/03 12:17:58;;;;;;;4.90;3.00;;;;;;;30.60;34.05;96717.91;5113982;28;20046;-63
2022/06/03 12:20:29;;;;;;;4.40;2.75;;;;;;;30.64;34.55;96721.94;5114013;28;20474;-65
2022/06/03 12:22:56;;;;;;;7.18;3.30;;;;;;;30.45;35.32;96708.94;5113994;28;20015;-66
2022/06/03 12:25:57;;;;;;;7.32;3.15;;;;;;;30.48;35.23;96709.41;5113848;28;20028;-66
2022/06/03 12:28:33;;;;;;;;;;;;;;;30.47;35.72;96709.59;5088821;28;20111;-66
2022/06/03 12:31:09;;;;;;;10.13;3.72;;;;;;;30.14;36.01;96706.09;5113811;28;19948;-66
2022/06/03 12:34:05;;;;;;;4.97;3.10;;;;;;;30.26;36.16;96711.97;5113888;28;20096;-66
2022/06/03 12:36:39;;;;;;;8.75;3.50;;;;;;;30.51;36.94;96709.06;5113488;28;20043;-63
2022/06/03 12:39:05;;;;;;;6.05;3.28;;;;;;;30.66;36.53;96710.13;5113849;28;20113;-62
2022/06/03 12:41:57;;;;;;;5.85;3.28;;;;;;;30.38;34.85;96714.22;5113736;28;20048;-65
2022/06/03 12:44:55;;;;;;;3.80;2.97;;;;;;;30.35;34.82;96706.50;5084311;28;20054;-65
2022/06/03 12:47:35;;;;;;;6.45;3.63;;;;;;;30.26;35.02;96705.72;5079176;28;20188;-64
2022/06/03 12:50:04;;;;;;;8.65;3.63;;;;;;;30.25;34.97;96706.75;5113687;28;20126;-63
2022/06/03 12:52:29;;;;;;;7.47;3.60;;;;;;;30.27;36.45;96705.53;5113586;28;20495;-65
2022/06/03 12:55:30;;;;;;;6.93;3.45;;;;;;;30.34;37.23;96718.31;5113556;28;20073;-63
2022/06/03 12:58:16;;;;;;;9.50;3.72;;;;;;;30.45;35.71;96722.41;5113509;28;20497;-66
2022/06/03 13:00:55;;;;;;;6.70;3.78;;;;;;;30.53;35.13;96722.38;5113548;28;20024;-69
2022/06/03 13:03:20;;;;;;;7.32;3.25;;;;;;;30.56;35.42;96723.84;5113427;28;20358;-65
2022/06/03 13:05:46;;;;;;;4.70;3.03;;;;;;;30.50;34.43;96725.44;5113474;28;20038;-66
2022/06/03 13:08:27;;;;;;;9.27;2.97;;;;;;;30.43;35.01;96732.56;5113406;28;20032;-64